createdAt,value
2022-10-22T00:00:15.921Z,9.27
2022-10-22T00:02:47.228Z,8.90
2022-10-22T00:05:18.693Z,9.10
2022-10-22T00:07:49.941Z,8.57
2022-10-22T00:10:21.277Z,9.17
2022-10-22T00:12:52.628Z,9.00
2022-10-22T00:15:24.114Z,9.20
2022-10-22T00:17:55.420Z,8.10
2022-10-22T00:20:26.740Z,8.37
2022-10-22T00:22:58.010Z,8.77
2022-10-22T00:25:29.392Z,8.47
2022-10-22T00:28:01.168Z,8.53
2022-10-22T00:30:32.510Z,8.67
2022-10-22T00:33:03.871Z,8.40
2022-10-22T00:35:35.288Z,8.37
2022-10-22T00:38:06.590Z,8.47
2022-10-22T00:40:37.861Z,8.63
2022-10-22T00:43:13.551Z,8.60
2022-10-22T00:45:45.553Z,9.27
2022-10-22T00:48:23.174Z,8.50
2022-10-22T00:50:58.673Z,8.37
2022-10-22T00:53:34.693Z,7.93
2022-10-22T00:58:43.587Z,8.43
2022-10-22T01:01:21.426Z,7.67
2022-10-22T01:03:53.601Z,8.93
2022-10-22T01:06:30.790Z,9.23
2022-10-22T01:09:21.274Z,9.37
2022-10-22T01:12:11.513Z,10.13
2022-10-22T01:15:21.751Z,8.60
2022-10-22T01:18:04.859Z,9.63
2022-10-22T01:21:03.640Z,8.47
2022-10-22T01:24:05.914Z,9.20
2022-10-22T01:26:37.147Z,19.80
2022-10-22T01:29:19.911Z,15.10
2022-10-22T01:31:56.453Z,21.27
2022-10-22T01:34:30.558Z,17.87
2022-10-22T01:37:03.516Z,18.73
2022-10-22T01:39:38.358Z,12.00
2022-10-22T01:42:12.384Z,8.83
2022-10-22T01:44:43.677Z,12.10
2022-10-22T01:47:39.280Z,12.67
2022-10-22T01:50:52.541Z,14.17
2022-10-22T01:53:48.452Z,18.43
2022-10-22T01:56:36.219Z,7.63
2022-10-22T01:59:17.234Z,17.57
2022-10-22T02:01:48.456Z,15.27
2022-10-22T02:04:40.601Z,6.93
2022-10-22T02:07:15.764Z,10.10
2022-10-22T02:09:49.082Z,5.03
2022-10-22T02:12:22.292Z,15.03
2022-10-22T02:14:55.514Z,16.00
2022-10-22T02:17:30.413Z,14.43
2022-10-22T02:20:08.110Z,10.47
2022-10-22T02:22:40.277Z,10.90
2022-10-22T02:25:12.366Z,8.67
2022-10-22T02:27:47.545Z,7.77
2022-10-22T02:30:21.438Z,14.73
2022-10-22T02:33:08.583Z,6.93
2022-10-22T02:35:41.956Z,15.53
2022-10-22T02:38:13.683Z,6.00
2022-10-22T02:40:45.350Z,5.90
2022-10-22T02:43:18.410Z,5.90
2022-10-22T02:45:49.691Z,6.77
2022-10-22T02:53:28.359Z,8.50
2022-10-22T02:56:00.118Z,9.30
2022-10-22T02:58:31.378Z,8.00
2022-10-22T03:01:02.716Z,9.67
2022-10-22T03:03:33.997Z,7.63
2022-10-22T03:06:05.533Z,7.43
2022-10-22T03:08:36.847Z,9.00
2022-10-22T03:11:08.635Z,9.23
2022-10-22T03:13:39.931Z,9.80
2022-10-22T03:20:03.605Z,14.13
2022-10-22T03:22:36.456Z,12.23
2022-10-22T03:25:12.080Z,14.70
2022-10-22T03:27:44.022Z,15.77
2022-10-22T03:30:15.777Z,12.80
2022-10-22T03:32:47.150Z,13.30
2022-10-22T03:35:18.461Z,18.20
2022-10-22T03:37:50.453Z,14.17
2022-10-22T03:40:21.860Z,15.23
2022-10-22T03:42:53.279Z,14.37
2022-10-22T03:45:24.663Z,15.27
2022-10-22T03:47:56.093Z,18.33
2022-10-22T03:50:27.433Z,16.13
2022-10-22T03:52:59.596Z,13.43
2022-10-22T03:55:30.881Z,14.07
2022-10-22T03:58:02.598Z,15.50
2022-10-22T04:00:35.533Z,13.63
2022-10-22T04:03:06.822Z,14.07
2022-10-22T04:05:38.060Z,11.93
2022-10-22T04:08:09.317Z,13.80
2022-10-22T04:10:40.643Z,14.63
2022-10-22T04:13:12.277Z,14.87
2022-10-22T04:15:43.524Z,14.00
2022-10-22T04:18:14.788Z,14.50
2022-10-22T04:20:46.102Z,14.97
2022-10-22T04:23:17.351Z,16.37
2022-10-22T04:25:48.592Z,13.87
2022-10-22T04:28:19.861Z,13.53
2022-10-22T04:30:51.110Z,14.40
2022-10-22T04:33:22.911Z,16.60
2022-10-22T04:35:54.165Z,14.73
2022-10-22T04:38:25.436Z,13.00
2022-10-22T04:40:56.741Z,19.37
2022-10-22T04:43:28.007Z,17.13
2022-10-22T04:46:00.837Z,17.73
2022-10-22T04:48:32.128Z,14.17
2022-10-22T04:51:04.980Z,16.30
2022-10-22T04:53:36.611Z,19.03
2022-10-22T04:56:16.735Z,23.10
2022-10-22T04:58:49.959Z,21.07
2022-10-22T05:01:36.891Z,16.07
2022-10-22T05:04:13.981Z,12.33
2022-10-22T05:06:45.798Z,14.47
2022-10-22T05:09:19.525Z,15.13
2022-10-22T05:11:52.555Z,28.70
2022-10-22T05:14:25.074Z,16.10
2022-10-22T05:16:56.369Z,16.43
2022-10-22T05:19:29.756Z,14.97
2022-10-22T05:22:02.812Z,14.77
2022-10-22T05:24:34.392Z,14.13
2022-10-22T05:27:05.764Z,13.30
2022-10-22T05:29:37.116Z,11.87
2022-10-22T05:32:08.438Z,19.97
2022-10-22T05:34:39.685Z,14.57
2022-10-22T05:37:10.976Z,14.47
2022-10-22T05:39:42.284Z,33.07
2022-10-22T05:42:13.680Z,13.27
2022-10-22T05:44:44.991Z,13.20
2022-10-22T05:47:16.271Z,15.03
2022-10-22T05:49:47.523Z,12.33
2022-10-22T05:52:18.857Z,13.80
2022-10-22T05:54:50.229Z,13.50
2022-10-22T05:57:21.529Z,25.83
2022-10-22T05:59:52.768Z,27.63
2022-10-22T06:02:24.163Z,26.13
2022-10-22T06:04:55.580Z,23.63
2022-10-22T06:07:27.001Z,32.53
2022-10-22T06:09:59.203Z,27.33
2022-10-22T06:12:30.512Z,27.23
2022-10-22T06:15:01.779Z,15.90
2022-10-22T06:17:33.060Z,12.23
2022-10-22T06:22:36.967Z,45.70
2022-10-22T06:25:08.763Z,15.87
2022-10-22T06:27:40.065Z,15.23
2022-10-22T06:30:11.733Z,10.93
2022-10-22T06:32:43.197Z,14.10
2022-10-22T06:35:14.706Z,11.60
2022-10-22T06:37:47.365Z,10.83
2022-10-22T06:40:19.266Z,11.37
2022-10-22T06:42:50.518Z,12.27
2022-10-22T06:45:21.773Z,12.70
2022-10-22T06:47:53.665Z,12.63
2022-10-22T06:50:24.908Z,11.83
2022-10-22T06:52:56.447Z,13.70
2022-10-22T06:55:27.696Z,13.93
2022-10-22T06:57:59.014Z,14.03
2022-10-22T07:00:30.337Z,14.77
2022-10-22T07:03:01.725Z,14.13
2022-10-22T07:05:34.398Z,13.63
2022-10-22T07:08:06.011Z,13.33
2022-10-22T07:10:37.287Z,13.33
2022-10-22T07:13:08.650Z,13.67
2022-10-22T07:15:39.891Z,13.73
2022-10-22T07:18:11.300Z,13.97
2022-10-22T07:20:42.589Z,12.87
2022-10-22T07:23:13.954Z,14.23
2022-10-22T07:25:45.289Z,14.83
2022-10-22T07:28:17.048Z,15.30
2022-10-22T07:30:48.810Z,15.03
2022-10-22T07:33:20.586Z,14.50
2022-10-22T07:35:57.851Z,13.83
2022-10-22T07:38:30.038Z,13.40
2022-10-22T07:41:01.865Z,13.40
2022-10-22T07:43:33.477Z,12.37
2022-10-22T07:46:04.943Z,11.97
2022-10-22T07:48:36.908Z,12.07
2022-10-22T07:51:09.262Z,12.00
2022-10-22T07:53:40.613Z,13.50
2022-10-22T07:56:11.944Z,11.40
2022-10-22T07:58:43.265Z,11.83
2022-10-22T08:01:14.686Z,11.70
2022-10-22T08:03:45.984Z,11.07
2022-10-22T08:06:17.712Z,11.27
2022-10-22T08:08:49.378Z,10.23
2022-10-22T08:11:20.729Z,10.33
2022-10-22T08:13:52.308Z,10.23
2022-10-22T08:16:23.584Z,9.37
2022-10-22T08:18:54.861Z,10.07
2022-10-22T08:21:26.894Z,9.67
2022-10-22T08:23:58.173Z,8.83
2022-10-22T08:26:29.456Z,8.30
2022-10-22T08:29:00.743Z,7.93
2022-10-22T08:31:32.469Z,8.80
2022-10-22T08:34:05.523Z,8.43
2022-10-22T08:36:36.799Z,8.87
2022-10-22T08:39:08.147Z,8.67
2022-10-22T08:41:53.941Z,7.93
2022-10-22T08:44:37.370Z,9.02
2022-10-22T08:47:49.337Z,7.57
2022-10-22T08:50:26.874Z,8.47
2022-10-22T08:53:02.452Z,8.10
2022-10-22T08:55:37.405Z,6.88
2022-10-22T08:58:25.572Z,7.95
2022-10-22T09:01:00.622Z,7.28
2022-10-22T09:04:13.405Z,6.70
2022-10-22T09:06:44.878Z,6.32
2022-10-22T09:09:18.142Z,5.97
2022-10-22T09:11:51.685Z,6.18
2022-10-22T09:14:25.790Z,5.82
2022-10-22T09:17:20.731Z,5.22
2022-10-22T09:20:12.385Z,5.50
2022-10-22T09:22:59.620Z,6.32
2022-10-22T09:25:35.081Z,5.15
2022-10-22T09:28:08.786Z,5.18
2022-10-22T09:30:44.655Z,5.22
2022-10-22T09:33:24.817Z,5.13
2022-10-22T09:36:03.507Z,5.47
2022-10-22T09:38:44.569Z,4.40
2022-10-22T09:41:17.081Z,4.10
2022-10-22T09:43:49.175Z,4.72
2022-10-22T09:46:23.626Z,3.88
2022-10-22T09:49:06.675Z,4.60
2022-10-22T09:51:54.972Z,3.15
2022-10-22T09:54:38.408Z,3.60
2022-10-22T09:57:18.213Z,3.25
2022-10-22T09:59:51.457Z,3.50
2022-10-22T10:02:43.981Z,2.85
2022-10-22T10:05:30.239Z,2.67
2022-10-22T10:08:22.111Z,3.20
2022-10-22T10:11:05.671Z,3.50
2022-10-22T10:14:06.434Z,2.90
2022-10-22T10:17:03.801Z,2.70
2022-10-22T10:20:03.023Z,2.15
2022-10-22T10:22:56.693Z,2.50
2022-10-22T10:25:28.082Z,2.80
2022-10-22T10:28:14.477Z,2.65
2022-10-22T10:33:40.384Z,2.55
2022-10-22T10:36:28.637Z,2.30
2022-10-22T10:39:10.250Z,2.47
2022-10-22T10:42:08.913Z,2.85
2022-10-22T10:45:09.537Z,2.63
2022-10-22T10:48:10.317Z,2.80
2022-10-22T10:51:03.805Z,2.40
2022-10-22T10:53:47.277Z,2.28
2022-10-22T10:56:39.350Z,2.80
2022-10-22T10:59:16.432Z,3.05
2022-10-22T11:01:59.927Z,2.60
2022-10-22T11:05:01.171Z,2.63
2022-10-22T11:07:40.562Z,2.53
2022-10-22T11:10:33.994Z,2.60
2022-10-22T11:13:18.836Z,2.40
2022-10-22T11:16:04.060Z,2.50
2022-10-22T11:18:48.010Z,2.10
2022-10-22T11:21:40.012Z,3.20
2022-10-22T11:24:21.966Z,2.67
2022-10-22T11:27:02.335Z,2.57
2022-10-22T11:29:40.897Z,2.60
2022-10-22T11:32:20.049Z,2.70
2022-10-22T11:34:56.345Z,2.50
2022-10-22T11:37:34.727Z,2.55
2022-10-22T11:40:14.635Z,2.97
2022-10-22T11:42:59.637Z,2.28
2022-10-22T11:45:36.108Z,2.45
2022-10-22T11:48:17.123Z,2.58
2022-10-22T11:50:50.731Z,2.33
2022-10-22T11:53:36.135Z,2.58
2022-10-22T11:56:07.479Z,2.60
2022-10-22T11:58:50.824Z,2.60
2022-10-22T12:01:28.904Z,2.72
2022-10-22T12:04:22.258Z,3.08
2022-10-22T12:07:02.049Z,2.90
2022-10-22T12:09:34.309Z,2.67
2022-10-22T12:12:15.325Z,2.13
2022-10-22T12:14:57.932Z,3.00
2022-10-22T12:17:30.957Z,3.00
2022-10-22T12:20:12.597Z,2.53
2022-10-22T12:22:44.133Z,2.78
2022-10-22T12:25:23.994Z,2.72
2022-10-22T12:27:57.983Z,2.67
2022-10-22T12:30:37.059Z,2.40
2022-10-22T12:33:19.344Z,2.55
2022-10-22T12:35:53.945Z,1.95
2022-10-22T12:38:25.660Z,1.83
2022-10-22T12:40:57.336Z,2.40
2022-10-22T12:43:30.218Z,2.00
2022-10-22T12:46:01.672Z,2.30
2022-10-22T12:48:38.738Z,2.22
2022-10-22T12:51:19.740Z,1.95
2022-10-22T12:53:54.329Z,2.15
2022-10-22T12:56:28.694Z,1.90
2022-10-22T12:59:03.069Z,2.20
2022-10-22T13:01:38.796Z,2.08
2022-10-22T13:04:13.022Z,2.40
2022-10-22T13:06:46.984Z,2.05
2022-10-22T13:09:27.064Z,1.90
2022-10-22T13:12:07.232Z,2.20
2022-10-22T13:14:38.684Z,2.10
2022-10-22T13:17:18.510Z,2.80
2022-10-22T13:20:02.025Z,1.90
2022-10-22T13:22:36.145Z,1.85
2022-10-22T13:25:13.667Z,2.42
2022-10-22T13:27:58.812Z,2.50
2022-10-22T13:30:33.820Z,2.20
2022-10-22T13:33:17.650Z,2.05
2022-10-22T13:35:49.416Z,2.00
2022-10-22T13:38:24.473Z,2.40
2022-10-22T13:40:56.636Z,2.00
2022-10-22T13:43:27.900Z,1.70
2022-10-22T13:46:00.277Z,1.80
2022-10-22T13:48:31.744Z,1.88
2022-10-22T13:51:06.651Z,1.90
2022-10-22T13:53:37.950Z,1.90
2022-10-22T13:56:13.984Z,2.00
2022-10-22T13:58:47.176Z,2.13
2022-10-22T14:01:22.735Z,2.50
2022-10-22T14:03:57.973Z,2.03
2022-10-22T14:06:33.278Z,2.38
2022-10-22T14:09:13.905Z,1.83
2022-10-22T14:11:45.274Z,2.13
2022-10-22T14:14:17.232Z,1.80
2022-10-22T14:16:48.650Z,2.63
2022-10-22T14:19:19.958Z,1.70
2022-10-22T14:21:52.199Z,1.90
2022-10-22T14:24:23.543Z,1.67
2022-10-22T14:26:54.845Z,1.80
2022-10-22T14:29:26.614Z,2.63
2022-10-22T14:31:57.962Z,1.60
2022-10-22T14:34:29.233Z,1.70
2022-10-22T14:37:00.508Z,2.50
2022-10-22T14:39:31.779Z,2.60
2022-10-22T14:42:03.182Z,3.20
2022-10-22T14:44:34.428Z,3.35
2022-10-22T14:47:06.108Z,2.33
2022-10-22T14:49:37.395Z,21.80
2022-10-22T14:52:11.675Z,20.75
2022-10-22T14:54:45.693Z,7.75
2022-10-22T14:57:17.139Z,7.30
2022-10-22T14:59:48.393Z,4.40
2022-10-22T15:02:19.652Z,4.47
2022-10-22T15:04:50.959Z,6.85
2022-10-22T15:07:24.582Z,3.72
2022-10-22T15:09:55.897Z,3.08
2022-10-22T15:12:27.650Z,2.10
2022-10-22T15:14:58.928Z,1.90
2022-10-22T15:17:30.289Z,3.60
2022-10-22T15:20:04.029Z,4.85
2022-10-22T15:22:35.729Z,4.68
2022-10-22T15:25:09.071Z,5.78
2022-10-22T15:27:40.860Z,5.20
2022-10-22T15:30:13.444Z,4.63
2022-10-22T15:32:44.721Z,4.00
2022-10-22T15:35:16.096Z,5.25
2022-10-22T15:37:51.420Z,4.60
2022-10-22T15:40:22.727Z,4.70
2022-10-22T15:42:54.475Z,4.53
2022-10-22T15:45:25.729Z,3.45
2022-10-22T15:47:57.011Z,4.18
2022-10-22T15:50:28.358Z,4.20
2022-10-22T15:53:00.107Z,3.50
2022-10-22T15:55:31.558Z,3.65
2022-10-22T15:58:04.188Z,5.22
2022-10-22T16:00:35.729Z,4.47
2022-10-22T16:03:07.686Z,4.20
2022-10-22T16:05:39.035Z,9.43
2022-10-22T16:08:10.313Z,64.85
2022-10-22T16:10:45.859Z,26.27
2022-10-22T16:13:17.167Z,19.60
2022-10-22T16:15:48.421Z,9.68
2022-10-22T16:18:20.437Z,5.25
2022-10-22T16:20:51.792Z,5.60
2022-10-22T16:23:23.340Z,4.18
2022-10-22T16:25:54.625Z,4.55
2022-10-22T16:28:25.922Z,4.82
2022-10-22T16:31:01.590Z,20.42
2022-10-22T16:33:41.283Z,33.78
2022-10-22T16:36:18.855Z,29.80
2022-10-22T16:38:50.410Z,7.25
2022-10-22T16:41:24.456Z,4.80
2022-10-22T16:43:55.810Z,5.53
2022-10-22T16:46:27.081Z,5.88
2022-10-22T16:48:58.743Z,6.88
2022-10-22T16:51:30.171Z,5.82
2022-10-22T16:54:01.562Z,5.45
2022-10-22T16:56:36.287Z,5.68
2022-10-22T16:59:07.964Z,5.57
2022-10-22T17:01:41.296Z,4.85
2022-10-22T17:04:12.847Z,5.07
2022-10-22T17:06:44.133Z,4.03
2022-10-22T17:09:15.811Z,3.58
2022-10-22T17:11:47.324Z,3.33
2022-10-22T17:14:18.623Z,3.97
2022-10-22T17:16:53.568Z,3.38
2022-10-22T17:19:24.919Z,3.10
2022-10-22T17:21:56.196Z,3.10
2022-10-22T17:24:27.478Z,4.30
2022-10-22T17:26:58.810Z,3.28
2022-10-22T17:29:30.120Z,3.38
2022-10-22T17:32:01.953Z,4.70
2022-10-22T17:34:33.841Z,4.30
2022-10-22T17:37:05.138Z,3.70
2022-10-22T17:39:36.445Z,4.60
2022-10-22T17:42:07.752Z,5.07
2022-10-22T17:44:39.016Z,4.03
2022-10-22T17:47:10.282Z,4.67
2022-10-22T17:49:41.658Z,3.37
2022-10-22T17:52:14.331Z,3.77
2022-10-22T17:54:48.386Z,3.80
2022-10-22T17:57:19.891Z,3.50
2022-10-22T17:59:51.312Z,3.60
2022-10-22T18:02:22.617Z,6.30
2022-10-22T18:04:54.096Z,6.13
2022-10-22T18:07:25.430Z,5.93
2022-10-22T18:09:56.771Z,6.20
2022-10-22T18:12:28.063Z,5.33
2022-10-22T18:14:59.331Z,3.90
2022-10-22T18:17:31.840Z,4.57
2022-10-22T18:20:05.330Z,4.70
2022-10-22T18:22:36.605Z,4.40
2022-10-22T18:25:09.053Z,3.50
2022-10-22T18:27:40.785Z,3.60
2022-10-22T18:30:12.596Z,4.23
2022-10-22T18:32:43.839Z,3.83
2022-10-22T18:35:15.174Z,4.03
2022-10-22T18:37:46.567Z,3.70
2022-10-22T18:40:17.978Z,3.40
2022-10-22T18:42:49.278Z,4.13
2022-10-22T18:45:20.588Z,4.07
2022-10-22T18:47:51.828Z,4.37
2022-10-22T18:50:23.145Z,3.70
2022-10-22T18:52:54.575Z,4.20
2022-10-22T18:55:25.887Z,3.67
2022-10-22T18:57:57.186Z,3.70
2022-10-22T19:00:28.497Z,3.40
2022-10-22T19:02:59.749Z,3.30
2022-10-22T19:05:31.687Z,3.17
2022-10-22T19:08:03.615Z,3.90
2022-10-22T19:10:34.989Z,3.53
2022-10-22T19:13:06.375Z,4.10
2022-10-22T19:15:37.666Z,3.90
2022-10-22T19:18:09.170Z,3.77
2022-10-22T19:20:40.789Z,3.60
2022-10-22T19:23:12.048Z,3.70
2022-10-22T19:25:43.369Z,4.07
2022-10-22T19:28:14.652Z,3.13
2022-10-22T19:30:45.932Z,3.80
2022-10-22T19:33:17.311Z,3.60
2022-10-22T19:35:48.871Z,4.43
2022-10-22T19:38:20.324Z,4.37
2022-10-22T19:40:51.756Z,4.37
2022-10-22T19:43:23.071Z,3.93
2022-10-22T19:45:55.404Z,4.20
2022-10-22T19:48:28.608Z,4.23
2022-10-22T19:51:03.012Z,4.43
2022-10-22T19:53:35.684Z,4.87
2022-10-22T19:56:12.501Z,4.40
2022-10-22T19:58:43.850Z,4.43
2022-10-22T20:01:17.578Z,4.20
2022-10-22T20:03:49.148Z,3.87
2022-10-22T20:06:21.886Z,3.77
2022-10-22T20:08:59.228Z,3.97
2022-10-22T20:11:30.557Z,5.27
2022-10-22T20:14:02.216Z,6.33
2022-10-22T20:16:33.667Z,5.03
2022-10-22T20:19:07.306Z,4.30
2022-10-22T20:21:40.234Z,4.50
2022-10-22T20:24:12.051Z,4.40
2022-10-22T20:26:46.177Z,4.63
2022-10-22T20:29:18.986Z,4.03
2022-10-22T20:31:50.370Z,4.37
2022-10-22T20:34:21.677Z,4.37
2022-10-22T20:36:52.954Z,4.90
2022-10-22T20:39:24.223Z,4.47
2022-10-22T20:41:55.513Z,4.87
2022-10-22T20:44:26.798Z,4.70
2022-10-22T20:49:34.302Z,4.97
2022-10-22T20:52:05.813Z,5.93
2022-10-22T20:54:43.951Z,5.30
2022-10-22T20:57:15.425Z,5.10
2022-10-22T20:59:46.836Z,6.23
2022-10-22T21:02:18.253Z,4.80
2022-10-22T21:04:49.569Z,4.93
2022-10-22T21:07:20.939Z,5.10
2022-10-22T21:09:52.242Z,5.50
2022-10-22T21:12:23.530Z,4.97
2022-10-22T21:14:54.809Z,5.30
2022-10-22T21:17:26.129Z,5.23
2022-10-22T21:19:57.504Z,4.90
2022-10-22T21:22:28.813Z,5.20
2022-10-22T21:25:00.083Z,5.00
2022-10-22T21:27:31.338Z,4.97
2022-10-22T21:30:02.776Z,4.80
2022-10-22T21:32:34.054Z,4.60
2022-10-22T21:35:05.687Z,4.70
2022-10-22T21:37:36.999Z,5.70
2022-10-22T21:40:08.896Z,5.80
2022-10-22T21:42:40.192Z,6.07
2022-10-22T21:45:14.157Z,6.20
2022-10-22T21:47:46.088Z,6.10
2022-10-22T21:50:17.366Z,6.07
2022-10-22T21:52:48.676Z,5.37
2022-10-22T21:55:19.938Z,5.40
2022-10-22T21:57:51.243Z,5.73
2022-10-22T22:00:22.624Z,4.87
2022-10-22T22:02:53.885Z,5.83
2022-10-22T22:05:25.236Z,5.23
2022-10-22T22:07:56.552Z,5.77
2022-10-22T22:10:27.861Z,5.03
2022-10-22T22:12:59.128Z,6.43
2022-10-22T22:15:31.545Z,6.13
2022-10-22T22:18:02.890Z,6.47
2022-10-22T22:20:34.238Z,6.17
2022-10-22T22:23:05.512Z,6.20
2022-10-22T22:25:36.767Z,5.83
2022-10-22T22:28:08.098Z,5.50
2022-10-22T22:30:39.395Z,4.47
2022-10-22T22:33:11.017Z,4.73
2022-10-22T22:35:42.276Z,4.60
2022-10-22T22:38:13.543Z,5.03
2022-10-22T22:40:44.857Z,6.07
2022-10-22T22:43:16.208Z,5.00
2022-10-22T22:45:47.449Z,6.17
2022-10-22T22:48:19.137Z,6.63
2022-10-22T22:50:50.401Z,6.67
2022-10-22T22:53:22.029Z,6.77
2022-10-22T22:56:23.958Z,6.53
2022-10-22T22:58:55.635Z,6.63
2022-10-22T23:01:32.503Z,7.17
2022-10-22T23:04:11.641Z,6.07
2022-10-22T23:06:43.004Z,5.57
2022-10-22T23:09:16.388Z,6.93
2022-10-22T23:11:47.894Z,6.83
2022-10-22T23:14:19.676Z,6.37
2022-10-22T23:16:52.937Z,6.67
2022-10-22T23:19:24.295Z,6.57
2022-10-22T23:21:55.752Z,7.00
2022-10-22T23:24:29.373Z,6.87
2022-10-22T23:27:02.225Z,7.40
2022-10-22T23:29:36.295Z,6.77
2022-10-22T23:32:14.177Z,7.07
2022-10-22T23:34:45.424Z,6.63
2022-10-22T23:37:16.687Z,6.43
2022-10-22T23:39:47.964Z,7.20
2022-10-22T23:42:19.288Z,7.87
2022-10-22T23:44:50.562Z,6.40
2022-10-22T23:47:21.830Z,7.63
2022-10-22T23:49:53.213Z,7.20
2022-10-22T23:52:24.491Z,6.87
2022-10-22T23:54:55.745Z,7.63
2022-10-22T23:57:27.057Z,6.80
2022-10-22T23:59:58.317Z,7.30
